sensor_id;sensor_type;location;lat;lon;timestamp;P1;durP1;ratioP1;P2;durP2;ratioP2
40653;SDS011;26344;45.532;9.232;2023-02-26T00:00:40;36.65;;;19.70;;
40653;SDS011;26344;45.532;9.232;2023-02-26T00:03:06;38.05;;;20.58;;
40653;SDS011;26344;45.532;9.232;2023-02-26T00:05:32;44.25;;;20.33;;
40653;SDS011;26344;45.532;9.232;2023-02-26T00:07:58;38.45;;;20.92;;
40653;SDS011;26344;45.532;9.232;2023-02-26T00:10:24;42.28;;;22.17;;
40653;SDS011;26344;45.532;9.232;2023-02-26T00:12:50;36.58;;;20.38;;
40653;SDS011;26344;45.532;9.232;2023-02-26T00:15:16;38.15;;;20.48;;
40653;SDS011;26344;45.532;9.232;2023-02-26T00:20:13;37.33;;;20.00;;
40653;SDS011;26344;45.532;9.232;2023-02-26T00:22:41;43.17;;;20.58;;
40653;SDS011;26344;45.532;9.232;2023-02-26T00:25:07;39.65;;;21.00;;
40653;SDS011;26344;45.532;9.232;2023-02-26T00:27:33;39.67;;;22.23;;
40653;SDS011;26344;45.532;9.232;2023-02-26T00:30:00;41.35;;;22.17;;
40653;SDS011;26344;45.532;9.232;2023-02-26T00:32:26;40.95;;;21.45;;
40653;SDS011;26344;45.532;9.232;2023-02-26T00:34:52;42.63;;;22.38;;
40653;SDS011;26344;45.532;9.232;2023-02-26T00:37:37;46.38;;;22.17;;
40653;SDS011;26344;45.532;9.232;2023-02-26T00:42:40;40.90;;;21.63;;
40653;SDS011;26344;45.532;9.232;2023-02-26T00:45:07;43.35;;;21.90;;
40653;SDS011;26344;45.532;9.232;2023-02-26T00:47:45;38.78;;;22.30;;
40653;SDS011;26344;45.532;9.232;2023-02-26T00:50:17;38.58;;;23.00;;
40653;SDS011;26344;45.532;9.232;2023-02-26T00:55:13;45.20;;;22.30;;
40653;SDS011;26344;45.532;9.232;2023-02-26T00:57:39;40.08;;;22.75;;
40653;SDS011;26344;45.532;9.232;2023-02-26T01:00:05;40.88;;;22.00;;
40653;SDS011;26344;45.532;9.232;2023-02-26T01:02:33;38.58;;;21.15;;
40653;SDS011;26344;45.532;9.232;2023-02-26T01:04:59;37.92;;;22.30;;
40653;SDS011;26344;45.532;9.232;2023-02-26T01:07:25;42.08;;;22.27;;
40653;SDS011;26344;45.532;9.232;2023-02-26T01:09:52;45.20;;;23.35;;
40653;SDS011;26344;45.532;9.232;2023-02-26T01:12:19;38.50;;;22.80;;
40653;SDS011;26344;45.532;9.232;2023-02-26T01:14:45;39.50;;;22.13;;
40653;SDS011;26344;45.532;9.232;2023-02-26T01:22:16;34.28;;;20.65;;
40653;SDS011;26344;45.532;9.232;2023-02-26T01:24:43;36.58;;;22.15;;
40653;SDS011;26344;45.532;9.232;2023-02-26T01:29:39;36.42;;;20.52;;
40653;SDS011;26344;45.532;9.232;2023-02-26T01:32:06;42.95;;;21.77;;
40653;SDS011;26344;45.532;9.232;2023-02-26T01:37:20;43.80;;;21.98;;
40653;SDS011;26344;45.532;9.232;2023-02-26T01:40:12;39.97;;;21.45;;
40653;SDS011;26344;45.532;9.232;2023-02-26T01:42:45;35.30;;;21.30;;
40653;SDS011;26344;45.532;9.232;2023-02-26T01:45:16;41.28;;;21.50;;
40653;SDS011;26344;45.532;9.232;2023-02-26T01:50:26;41.17;;;21.35;;
40653;SDS011;26344;45.532;9.232;2023-02-26T01:55:42;35.72;;;21.50;;
40653;SDS011;26344;45.532;9.232;2023-02-26T01:58:09;39.08;;;21.75;;
40653;SDS011;26344;45.532;9.232;2023-02-26T02:00:35;34.67;;;21.00;;
40653;SDS011;26344;45.532;9.232;2023-02-26T02:03:01;41.72;;;21.95;;
40653;SDS011;26344;45.532;9.232;2023-02-26T02:05:32;38.90;;;21.42;;
40653;SDS011;26344;45.532;9.232;2023-02-26T02:07:59;40.38;;;22.77;;
40653;SDS011;26344;45.532;9.232;2023-02-26T02:10:26;36.38;;;21.42;;
40653;SDS011;26344;45.532;9.232;2023-02-26T02:13:02;39.25;;;22.35;;
40653;SDS011;26344;45.532;9.232;2023-02-26T02:18:00;33.47;;;20.40;;
40653;SDS011;26344;45.532;9.232;2023-02-26T02:23:29;34.00;;;21.15;;
40653;SDS011;26344;45.532;9.232;2023-02-26T02:31:10;40.05;;;22.70;;
40653;SDS011;26344;45.532;9.232;2023-02-26T02:36:35;40.63;;;22.80;;
40653;SDS011;26344;45.532;9.232;2023-02-26T02:39:08;40.08;;;21.67;;
40653;SDS011;26344;45.532;9.232;2023-02-26T02:41:41;37.17;;;21.77;;
40653;SDS011;26344;45.532;9.232;2023-02-26T02:44:10;39.53;;;21.50;;
40653;SDS011;26344;45.532;9.232;2023-02-26T02:46:39;46.15;;;22.77;;
40653;SDS011;26344;45.532;9.232;2023-02-26T02:49:10;48.17;;;22.60;;
40653;SDS011;26344;45.532;9.232;2023-02-26T02:51:46;43.75;;;22.70;;
40653;SDS011;26344;45.532;9.232;2023-02-26T02:56:41;40.92;;;23.33;;
40653;SDS011;26344;45.532;9.232;2023-02-26T02:59:20;40.35;;;22.98;;
40653;SDS011;26344;45.532;9.232;2023-02-26T03:01:47;39.58;;;22.17;;
40653;SDS011;26344;45.532;9.232;2023-02-26T03:04:15;40.78;;;21.83;;
40653;SDS011;26344;45.532;9.232;2023-02-26T03:06:42;39.22;;;22.17;;
40653;SDS011;26344;45.532;9.232;2023-02-26T03:09:10;38.30;;;22.38;;
40653;SDS011;26344;45.532;9.232;2023-02-26T03:11:37;42.97;;;22.15;;
40653;SDS011;26344;45.532;9.232;2023-02-26T03:14:03;36.83;;;21.63;;
40653;SDS011;26344;45.532;9.232;2023-02-26T03:19:30;41.70;;;22.30;;
40653;SDS011;26344;45.532;9.232;2023-02-26T03:24:35;34.92;;;22.27;;
40653;SDS011;26344;45.532;9.232;2023-02-26T03:27:04;39.33;;;22.40;;
40653;SDS011;26344;45.532;9.232;2023-02-26T03:29:34;35.20;;;21.13;;
40653;SDS011;26344;45.532;9.232;2023-02-26T03:32:04;46.15;;;22.98;;
40653;SDS011;26344;45.532;9.232;2023-02-26T03:34:42;42.15;;;21.45;;
40653;SDS011;26344;45.532;9.232;2023-02-26T03:39:44;41.92;;;23.05;;
40653;SDS011;26344;45.532;9.232;2023-02-26T03:44:48;41.60;;;22.13;;
40653;SDS011;26344;45.532;9.232;2023-02-26T03:47:17;40.55;;;22.73;;
40653;SDS011;26344;45.532;9.232;2023-02-26T03:49:45;36.45;;;22.33;;
40653;SDS011;26344;45.532;9.232;2023-02-26T03:52:12;33.65;;;21.13;;
40653;SDS011;26344;45.532;9.232;2023-02-26T03:54:44;42.47;;;21.27;;
40653;SDS011;26344;45.532;9.232;2023-02-26T03:57:11;35.42;;;19.98;;
40653;SDS011;26344;45.532;9.232;2023-02-26T03:59:37;35.38;;;17.90;;
40653;SDS011;26344;45.532;9.232;2023-02-26T04:02:15;29.65;;;15.75;;
40653;SDS011;26344;45.532;9.232;2023-02-26T04:05:02;23.25;;;13.35;;
40653;SDS011;26344;45.532;9.232;2023-02-26T04:07:30;22.58;;;13.75;;
40653;SDS011;26344;45.532;9.232;2023-02-26T04:09:56;22.25;;;13.30;;
40653;SDS011;26344;45.532;9.232;2023-02-26T04:12:22;19.58;;;12.35;;
40653;SDS011;26344;45.532;9.232;2023-02-26T04:14:49;25.77;;;13.63;;
40653;SDS011;26344;45.532;9.232;2023-02-26T04:17:15;28.83;;;14.18;;
40653;SDS011;26344;45.532;9.232;2023-02-26T04:19:41;35.35;;;18.67;;
40653;SDS011;26344;45.532;9.232;2023-02-26T04:22:07;32.65;;;17.98;;
40653;SDS011;26344;45.532;9.232;2023-02-26T04:24:33;36.13;;;19.65;;
40653;SDS011;26344;45.532;9.232;2023-02-26T04:26:59;41.70;;;22.17;;
40653;SDS011;26344;45.532;9.232;2023-02-26T04:29:25;45.95;;;21.23;;
40653;SDS011;26344;45.532;9.232;2023-02-26T04:31:51;43.67;;;24.35;;
40653;SDS011;26344;45.532;9.232;2023-02-26T04:34:17;47.55;;;25.60;;
40653;SDS011;26344;45.532;9.232;2023-02-26T04:36:44;48.80;;;27.52;;
40653;SDS011;26344;45.532;9.232;2023-02-26T04:39:10;52.58;;;28.08;;
40653;SDS011;26344;45.532;9.232;2023-02-26T04:41:36;56.33;;;30.65;;
40653;SDS011;26344;45.532;9.232;2023-02-26T04:44:03;61.28;;;33.70;;
40653;SDS011;26344;45.532;9.232;2023-02-26T04:46:29;64.22;;;33.47;;
40653;SDS011;26344;45.532;9.232;2023-02-26T04:48:55;64.47;;;32.10;;
40653;SDS011;26344;45.532;9.232;2023-02-26T04:51:21;78.60;;;36.75;;
40653;SDS011;26344;45.532;9.232;2023-02-26T04:53:47;74.55;;;37.55;;
40653;SDS011;26344;45.532;9.232;2023-02-26T04:56:13;72.68;;;38.40;;
40653;SDS011;26344;45.532;9.232;2023-02-26T04:58:39;76.22;;;39.20;;
40653;SDS011;26344;45.532;9.232;2023-02-26T05:01:05;76.70;;;39.95;;
40653;SDS011;26344;45.532;9.232;2023-02-26T05:03:31;84.93;;;42.60;;
40653;SDS011;26344;45.532;9.232;2023-02-26T05:05:57;82.82;;;40.92;;
40653;SDS011;26344;45.532;9.232;2023-02-26T05:08:23;88.47;;;41.50;;
40653;SDS011;26344;45.532;9.232;2023-02-26T05:10:49;80.40;;;40.97;;
40653;SDS011;26344;45.532;9.232;2023-02-26T05:13:16;89.68;;;44.70;;
40653;SDS011;26344;45.532;9.232;2023-02-26T05:15:42;83.75;;;43.55;;
40653;SDS011;26344;45.532;9.232;2023-02-26T05:18:08;88.40;;;44.58;;
40653;SDS011;26344;45.532;9.232;2023-02-26T05:20:34;94.40;;;43.47;;
40653;SDS011;26344;45.532;9.232;2023-02-26T05:23:00;93.45;;;42.30;;
40653;SDS011;26344;45.532;9.232;2023-02-26T05:25:26;71.45;;;35.50;;
40653;SDS011;26344;45.532;9.232;2023-02-26T05:27:52;62.65;;;32.63;;
40653;SDS011;26344;45.532;9.232;2023-02-26T05:30:18;61.72;;;23.83;;
40653;SDS011;26344;45.532;9.232;2023-02-26T05:32:44;34.10;;;16.38;;
40653;SDS011;26344;45.532;9.232;2023-02-26T05:35:10;27.38;;;13.80;;
40653;SDS011;26344;45.532;9.232;2023-02-26T05:37:36;21.40;;;7.65;;
40653;SDS011;26344;45.532;9.232;2023-02-26T05:40:03;18.85;;;6.35;;
40653;SDS011;26344;45.532;9.232;2023-02-26T05:42:30;16.80;;;5.03;;
40653;SDS011;26344;45.532;9.232;2023-02-26T05:44:56;12.25;;;5.05;;
40653;SDS011;26344;45.532;9.232;2023-02-26T05:47:22;10.80;;;4.35;;
40653;SDS011;26344;45.532;9.232;2023-02-26T05:49:48;13.45;;;3.83;;
40653;SDS011;26344;45.532;9.232;2023-02-26T05:52:14;21.23;;;3.72;;
40653;SDS011;26344;45.532;9.232;2023-02-26T05:54:40;11.48;;;3.40;;
40653;SDS011;26344;45.532;9.232;2023-02-26T05:57:06;11.88;;;2.92;;
40653;SDS011;26344;45.532;9.232;2023-02-26T05:59:32;6.93;;;2.70;;
40653;SDS011;26344;45.532;9.232;2023-02-26T06:01:58;15.65;;;2.85;;
40653;SDS011;26344;45.532;9.232;2023-02-26T06:04:24;6.75;;;2.45;;
40653;SDS011;26344;45.532;9.232;2023-02-26T06:06:50;9.75;;;2.30;;
40653;SDS011;26344;45.532;9.232;2023-02-26T06:09:16;4.90;;;1.80;;
40653;SDS011;26344;45.532;9.232;2023-02-26T06:11:42;12.13;;;1.50;;
40653;SDS011;26344;45.532;9.232;2023-02-26T06:14:08;5.05;;;1.60;;
40653;SDS011;26344;45.532;9.232;2023-02-26T06:16:34;3.58;;;1.27;;
40653;SDS011;26344;45.532;9.232;2023-02-26T06:19:01;2.40;;;1.10;;
40653;SDS011;26344;45.532;9.232;2023-02-26T06:21:27;2.95;;;0.80;;
40653;SDS011;26344;45.532;9.232;2023-02-26T06:23:53;5.47;;;0.90;;
40653;SDS011;26344;45.532;9.232;2023-02-26T06:26:19;4.38;;;0.80;;
40653;SDS011;26344;45.532;9.232;2023-02-26T06:28:45;3.88;;;1.25;;
40653;SDS011;26344;45.532;9.232;2023-02-26T06:31:11;6.70;;;0.90;;
40653;SDS011;26344;45.532;9.232;2023-02-26T06:33:37;5.20;;;0.50;;
40653;SDS011;26344;45.532;9.232;2023-02-26T06:36:03;2.65;;;0.60;;
40653;SDS011;26344;45.532;9.232;2023-02-26T06:38:29;1.35;;;0.60;;
40653;SDS011;26344;45.532;9.232;2023-02-26T06:40:55;1.80;;;0.45;;
40653;SDS011;26344;45.532;9.232;2023-02-26T06:43:21;0.50;;;0.35;;
40653;SDS011;26344;45.532;9.232;2023-02-26T06:45:47;1.52;;;0.30;;
40653;SDS011;26344;45.532;9.232;2023-02-26T06:48:13;5.35;;;0.57;;
40653;SDS011;26344;45.532;9.232;2023-02-26T06:50:40;4.00;;;0.77;;
40653;SDS011;26344;45.532;9.232;2023-02-26T06:53:06;4.15;;;0.65;;
40653;SDS011;26344;45.532;9.232;2023-02-26T06:55:32;2.50;;;0.45;;
40653;SDS011;26344;45.532;9.232;2023-02-26T06:57:58;1.25;;;0.60;;
40653;SDS011;26344;45.532;9.232;2023-02-26T07:00:24;1.80;;;0.50;;
40653;SDS011;26344;45.532;9.232;2023-02-26T07:02:50;3.92;;;0.57;;
40653;SDS011;26344;45.532;9.232;2023-02-26T07:05:17;0.90;;;0.50;;
40653;SDS011;26344;45.532;9.232;2023-02-26T07:07:43;0.73;;;0.40;;
40653;SDS011;26344;45.532;9.232;2023-02-26T07:10:09;2.22;;;0.50;;
40653;SDS011;26344;45.532;9.232;2023-02-26T07:12:36;1.15;;;0.28;;
40653;SDS011;26344;45.532;9.232;2023-02-26T07:15:02;2.50;;;0.60;;
40653;SDS011;26344;45.532;9.232;2023-02-26T07:17:28;3.25;;;0.50;;
40653;SDS011;26344;45.532;9.232;2023-02-26T07:19:54;2.33;;;0.50;;
40653;SDS011;26344;45.532;9.232;2023-02-26T07:22:36;0.93;;;0.50;;
40653;SDS011;26344;45.532;9.232;2023-02-26T07:25:02;0.75;;;0.40;;
40653;SDS011;26344;45.532;9.232;2023-02-26T07:27:29;2.25;;;0.40;;
40653;SDS011;26344;45.532;9.232;2023-02-26T07:29:56;4.95;;;0.52;;
40653;SDS011;26344;45.532;9.232;2023-02-26T07:32:22;0.80;;;0.40;;
40653;SDS011;26344;45.532;9.232;2023-02-26T07:34:48;1.60;;;0.50;;
40653;SDS011;26344;45.532;9.232;2023-02-26T07:37:14;1.17;;;0.50;;
40653;SDS011;26344;45.532;9.232;2023-02-26T07:39:40;0.63;;;0.47;;
40653;SDS011;26344;45.532;9.232;2023-02-26T07:42:06;1.08;;;0.50;;
40653;SDS011;26344;45.532;9.232;2023-02-26T07:44:33;3.13;;;0.40;;
40653;SDS011;26344;45.532;9.232;2023-02-26T07:46:59;2.90;;;0.47;;
40653;SDS011;26344;45.532;9.232;2023-02-26T07:49:25;1.88;;;0.70;;
40653;SDS011;26344;45.532;9.232;2023-02-26T07:51:51;0.65;;;0.40;;
40653;SDS011;26344;45.532;9.232;2023-02-26T07:54:17;5.85;;;0.70;;
40653;SDS011;26344;45.532;9.232;2023-02-26T07:56:43;1.90;;;0.82;;
40653;SDS011;26344;45.532;9.232;2023-02-26T07:59:09;1.40;;;0.43;;
40653;SDS011;26344;45.532;9.232;2023-02-26T08:01:35;0.75;;;0.43;;
40653;SDS011;26344;45.532;9.232;2023-02-26T08:04:01;1.38;;;0.40;;
40653;SDS011;26344;45.532;9.232;2023-02-26T08:06:28;2.70;;;0.35;;
40653;SDS011;26344;45.532;9.232;2023-02-26T08:08:54;1.42;;;0.38;;
40653;SDS011;26344;45.532;9.232;2023-02-26T08:11:20;1.00;;;0.50;;
40653;SDS011;26344;45.532;9.232;2023-02-26T08:13:46;0.40;;;0.30;;
40653;SDS011;26344;45.532;9.232;2023-02-26T08:16:12;1.35;;;0.40;;
40653;SDS011;26344;45.532;9.232;2023-02-26T08:18:38;0.70;;;0.32;;
40653;SDS011;26344;45.532;9.232;2023-02-26T08:21:04;3.10;;;0.57;;
40653;SDS011;26344;45.532;9.232;2023-02-26T08:23:30;2.78;;;0.30;;
40653;SDS011;26344;45.532;9.232;2023-02-26T08:26:06;0.77;;;0.25;;
40653;SDS011;26344;45.532;9.232;2023-02-26T08:28:32;0.77;;;0.40;;
40653;SDS011;26344;45.532;9.232;2023-02-26T08:30:58;0.82;;;0.30;;
40653;SDS011;26344;45.532;9.232;2023-02-26T08:33:24;2.35;;;0.40;;
40653;SDS011;26344;45.532;9.232;2023-02-26T08:35:51;0.50;;;0.30;;
40653;SDS011;26344;45.532;9.232;2023-02-26T08:38:17;3.40;;;0.40;;
40653;SDS011;26344;45.532;9.232;2023-02-26T08:40:43;1.77;;;0.38;;
40653;SDS011;26344;45.532;9.232;2023-02-26T08:43:09;3.00;;;0.65;;
40653;SDS011;26344;45.532;9.232;2023-02-26T08:45:37;2.10;;;0.80;;
40653;SDS011;26344;45.532;9.232;2023-02-26T08:48:03;2.80;;;0.60;;
40653;SDS011;26344;45.532;9.232;2023-02-26T08:50:29;0.88;;;0.50;;
40653;SDS011;26344;45.532;9.232;2023-02-26T08:52:55;0.98;;;0.50;;
40653;SDS011;26344;45.532;9.232;2023-02-26T08:55:21;3.70;;;1.50;;
40653;SDS011;26344;45.532;9.232;2023-02-26T08:57:47;1.15;;;0.55;;
40653;SDS011;26344;45.532;9.232;2023-02-26T09:00:13;2.33;;;0.52;;
40653;SDS011;26344;45.532;9.232;2023-02-26T09:02:41;1.58;;;0.65;;
40653;SDS011;26344;45.532;9.232;2023-02-26T09:05:08;0.82;;;0.40;;
40653;SDS011;26344;45.532;9.232;2023-02-26T09:07:34;3.17;;;1.02;;
40653;SDS011;26344;45.532;9.232;2023-02-26T09:10:00;3.50;;;0.80;;
40653;SDS011;26344;45.532;9.232;2023-02-26T09:12:26;2.20;;;0.68;;
40653;SDS011;26344;45.532;9.232;2023-02-26T09:14:52;2.45;;;0.82;;
40653;SDS011;26344;45.532;9.232;2023-02-26T09:17:18;1.17;;;0.60;;
40653;SDS011;26344;45.532;9.232;2023-02-26T09:19:44;1.77;;;0.80;;
40653;SDS011;26344;45.532;9.232;2023-02-26T09:22:10;2.58;;;0.70;;
40653;SDS011;26344;45.532;9.232;2023-02-26T09:24:36;1.30;;;0.55;;
40653;SDS011;26344;45.532;9.232;2023-02-26T09:27:02;2.33;;;0.65;;
40653;SDS011;26344;45.532;9.232;2023-02-26T09:29:28;5.57;;;0.38;;
40653;SDS011;26344;45.532;9.232;2023-02-26T09:31:54;0.80;;;0.40;;
40653;SDS011;26344;45.532;9.232;2023-02-26T09:34:20;0.90;;;0.30;;
40653;SDS011;26344;45.532;9.232;2023-02-26T09:36:46;3.47;;;0.47;;
40653;SDS011;26344;45.532;9.232;2023-02-26T09:39:12;0.45;;;0.28;;
40653;SDS011;26344;45.532;9.232;2023-02-26T09:41:40;3.50;;;0.43;;
40653;SDS011;26344;45.532;9.232;2023-02-26T09:44:49;2.20;;;0.75;;
40653;SDS011;26344;45.532;9.232;2023-02-26T09:50:08;1.45;;;0.40;;
40653;SDS011;26344;45.532;9.232;2023-02-26T09:55:12;0.82;;;0.20;;
40653;SDS011;26344;45.532;9.232;2023-02-26T09:57:43;0.98;;;0.30;;
40653;SDS011;26344;45.532;9.232;2023-02-26T10:08:00;1.60;;;0.40;;
40653;SDS011;26344;45.532;9.232;2023-02-26T10:10:40;2.60;;;0.30;;
40653;SDS011;26344;45.532;9.232;2023-02-26T10:13:21;2.25;;;0.60;;
40653;SDS011;26344;45.532;9.232;2023-02-26T10:15:48;0.52;;;0.25;;
40653;SDS011;26344;45.532;9.232;2023-02-26T10:18:17;1.52;;;0.50;;
40653;SDS011;26344;45.532;9.232;2023-02-26T10:20:53;1.75;;;0.70;;
40653;SDS011;26344;45.532;9.232;2023-02-26T10:23:37;1.35;;;0.50;;
40653;SDS011;26344;45.532;9.232;2023-02-26T10:31:31;9.05;;;0.50;;
40653;SDS011;26344;45.532;9.232;2023-02-26T10:36:51;4.95;;;0.80;;
40653;SDS011;26344;45.532;9.232;2023-02-26T10:39:45;1.98;;;0.80;;
40653;SDS011;26344;45.532;9.232;2023-02-26T10:42:12;5.85;;;0.80;;
40653;SDS011;26344;45.532;9.232;2023-02-26T10:49:50;2.00;;;0.80;;
40653;SDS011;26344;45.532;9.232;2023-02-26T10:52:18;2.97;;;0.90;;
40653;SDS011;26344;45.532;9.232;2023-02-26T10:57:27;1.52;;;0.90;;
40653;SDS011;26344;45.532;9.232;2023-02-26T10:59:57;2.17;;;0.70;;
40653;SDS011;26344;45.532;9.232;2023-02-26T11:02:42;3.05;;;1.00;;
40653;SDS011;26344;45.532;9.232;2023-02-26T11:05:19;1.80;;;0.85;;
40653;SDS011;26344;45.532;9.232;2023-02-26T11:07:47;4.70;;;1.08;;
40653;SDS011;26344;45.532;9.232;2023-02-26T11:10:14;3.33;;;1.10;;
40653;SDS011;26344;45.532;9.232;2023-02-26T11:12:41;2.00;;;0.95;;
40653;SDS011;26344;45.532;9.232;2023-02-26T11:15:11;3.42;;;1.00;;
40653;SDS011;26344;45.532;9.232;2023-02-26T11:17:37;2.13;;;0.80;;
40653;SDS011;26344;45.532;9.232;2023-02-26T11:20:14;1.40;;;0.70;;
40653;SDS011;26344;45.532;9.232;2023-02-26T11:22:46;2.15;;;0.65;;
40653;SDS011;26344;45.532;9.232;2023-02-26T11:25:13;0.98;;;0.68;;
40653;SDS011;26344;45.532;9.232;2023-02-26T11:27:42;3.70;;;0.90;;
40653;SDS011;26344;45.532;9.232;2023-02-26T11:30:19;2.15;;;0.98;;
40653;SDS011;26344;45.532;9.232;2023-02-26T11:32:50;1.23;;;0.70;;
40653;SDS011;26344;45.532;9.232;2023-02-26T11:35:16;1.33;;;0.70;;
40653;SDS011;26344;45.532;9.232;2023-02-26T11:37:47;2.22;;;1.00;;
40653;SDS011;26344;45.532;9.232;2023-02-26T11:42:52;3.55;;;1.58;;
40653;SDS011;26344;45.532;9.232;2023-02-26T11:45:19;4.38;;;2.13;;
40653;SDS011;26344;45.532;9.232;2023-02-26T11:47:46;6.07;;;1.40;;
40653;SDS011;26344;45.532;9.232;2023-02-26T11:50:17;2.35;;;1.10;;
40653;SDS011;26344;45.532;9.232;2023-02-26T11:52:45;2.15;;;1.13;;
40653;SDS011;26344;45.532;9.232;2023-02-26T11:55:17;3.28;;;1.10;;
40653;SDS011;26344;45.532;9.232;2023-02-26T11:57:43;2.97;;;1.10;;
40653;SDS011;26344;45.532;9.232;2023-02-26T12:00:17;2.30;;;1.00;;
40653;SDS011;26344;45.532;9.232;2023-02-26T12:02:43;2.30;;;1.13;;
40653;SDS011;26344;45.532;9.232;2023-02-26T12:05:09;1.75;;;0.90;;
40653;SDS011;26344;45.532;9.232;2023-02-26T12:07:37;2.35;;;1.30;;
40653;SDS011;26344;45.532;9.232;2023-02-26T12:10:08;4.65;;;1.48;;
40653;SDS011;26344;45.532;9.232;2023-02-26T12:15:08;4.32;;;1.63;;
40653;SDS011;26344;45.532;9.232;2023-02-26T12:20:23;4.35;;;1.60;;
40653;SDS011;26344;45.532;9.232;2023-02-26T12:33:09;2.95;;;1.17;;
40653;SDS011;26344;45.532;9.232;2023-02-26T12:39:16;4.72;;;1.52;;
40653;SDS011;26344;45.532;9.232;2023-02-26T12:41:42;3.38;;;1.38;;
40653;SDS011;26344;45.532;9.232;2023-02-26T12:44:22;3.35;;;1.20;;
40653;SDS011;26344;45.532;9.232;2023-02-26T12:49:23;2.25;;;1.30;;
40653;SDS011;26344;45.532;9.232;2023-02-26T12:54:32;3.90;;;1.40;;
40653;SDS011;26344;45.532;9.232;2023-02-26T12:57:15;4.05;;;1.17;;
40653;SDS011;26344;45.532;9.232;2023-02-26T13:02:46;3.05;;;0.98;;
40653;SDS011;26344;45.532;9.232;2023-02-26T13:11:13;2.75;;;1.30;;
40653;SDS011;26344;45.532;9.232;2023-02-26T13:13:50;3.40;;;1.50;;
40653;SDS011;26344;45.532;9.232;2023-02-26T13:18:47;2.08;;;1.23;;
40653;SDS011;26344;45.532;9.232;2023-02-26T13:21:16;3.70;;;1.35;;
40653;SDS011;26344;45.532;9.232;2023-02-26T13:23:56;2.35;;;1.50;;
40653;SDS011;26344;45.532;9.232;2023-02-26T13:26:24;7.35;;;1.60;;
40653;SDS011;26344;45.532;9.232;2023-02-26T13:33:45;1.48;;;1.02;;
40653;SDS011;26344;45.532;9.232;2023-02-26T13:36:13;2.58;;;1.08;;
40653;SDS011;26344;45.532;9.232;2023-02-26T13:38:45;3.55;;;1.52;;
40653;SDS011;26344;45.532;9.232;2023-02-26T13:41:26;5.40;;;1.23;;
40653;SDS011;26344;45.532;9.232;2023-02-26T13:49:08;5.32;;;1.45;;
40653;SDS011;26344;45.532;9.232;2023-02-26T13:51:36;2.15;;;1.25;;
40653;SDS011;26344;45.532;9.232;2023-02-26T14:01:31;4.38;;;1.30;;
40653;SDS011;26344;45.532;9.232;2023-02-26T14:04:20;1.98;;;1.48;;
40653;SDS011;26344;45.532;9.232;2023-02-26T14:06:48;2.33;;;1.55;;
40653;SDS011;26344;45.532;9.232;2023-02-26T14:12:00;1.35;;;1.02;;
40653;SDS011;26344;45.532;9.232;2023-02-26T14:14:33;4.38;;;1.65;;
40653;SDS011;26344;45.532;9.232;2023-02-26T14:19:42;3.90;;;1.60;;
40653;SDS011;26344;45.532;9.232;2023-02-26T14:24:45;3.47;;;1.70;;
40653;SDS011;26344;45.532;9.232;2023-02-26T14:30:13;2.05;;;1.15;;
40653;SDS011;26344;45.532;9.232;2023-02-26T14:32:31;2.78;;;1.38;;
40653;SDS011;26344;45.532;9.232;2023-02-26T14:35:05;2.33;;;1.38;;
40653;SDS011;26344;45.532;9.232;2023-02-26T14:37:31;1.88;;;1.00;;
40653;SDS011;26344;45.532;9.232;2023-02-26T14:40:06;2.47;;;1.30;;
40653;SDS011;26344;45.532;9.232;2023-02-26T14:42:37;1.90;;;1.13;;
40653;SDS011;26344;45.532;9.232;2023-02-26T14:45:17;2.67;;;0.93;;
40653;SDS011;26344;45.532;9.232;2023-02-26T14:47:46;2.35;;;1.20;;
40653;SDS011;26344;45.532;9.232;2023-02-26T14:50:14;3.17;;;0.88;;
40653;SDS011;26344;45.532;9.232;2023-02-26T14:55:38;1.90;;;0.90;;
40653;SDS011;26344;45.532;9.232;2023-02-26T15:06:31;1.17;;;0.90;;
40653;SDS011;26344;45.532;9.232;2023-02-26T15:24:38;4.75;;;1.40;;
40653;SDS011;26344;45.532;9.232;2023-02-26T15:27:06;3.42;;;1.30;;
40653;SDS011;26344;45.532;9.232;2023-02-26T15:29:34;2.22;;;1.15;;
40653;SDS011;26344;45.532;9.232;2023-02-26T15:32:12;6.97;;;1.10;;
40653;SDS011;26344;45.532;9.232;2023-02-26T15:34:41;1.83;;;0.95;;
40653;SDS011;26344;45.532;9.232;2023-02-26T15:37:14;2.35;;;1.15;;
40653;SDS011;26344;45.532;9.232;2023-02-26T15:39:46;2.15;;;1.38;;
40653;SDS011;26344;45.532;9.232;2023-02-26T15:42:12;2.35;;;1.30;;
40653;SDS011;26344;45.532;9.232;2023-02-26T15:44:38;3.45;;;1.30;;
40653;SDS011;26344;45.532;9.232;2023-02-26T15:47:04;2.10;;;1.27;;
40653;SDS011;26344;45.532;9.232;2023-02-26T15:49:32;1.50;;;1.02;;
40653;SDS011;26344;45.532;9.232;2023-02-26T15:51:59;2.00;;;1.30;;
40653;SDS011;26344;45.532;9.232;2023-02-26T15:54:28;2.78;;;1.40;;
40653;SDS011;26344;45.532;9.232;2023-02-26T15:56:57;2.72;;;1.30;;
40653;SDS011;26344;45.532;9.232;2023-02-26T15:59:26;2.30;;;1.10;;
40653;SDS011;26344;45.532;9.232;2023-02-26T16:01:53;2.13;;;0.90;;
40653;SDS011;26344;45.532;9.232;2023-02-26T16:04:20;3.20;;;1.10;;
40653;SDS011;26344;45.532;9.232;2023-02-26T16:06:54;1.42;;;0.90;;
40653;SDS011;26344;45.532;9.232;2023-02-26T16:11:50;3.70;;;0.97;;
40653;SDS011;26344;45.532;9.232;2023-02-26T16:14:20;3.17;;;1.40;;
40653;SDS011;26344;45.532;9.232;2023-02-26T16:16:47;1.70;;;0.95;;
40653;SDS011;26344;45.532;9.232;2023-02-26T16:19:14;2.83;;;1.20;;
40653;SDS011;26344;45.532;9.232;2023-02-26T16:21:41;2.78;;;0.98;;
40653;SDS011;26344;45.532;9.232;2023-02-26T16:24:09;1.63;;;1.05;;
40653;SDS011;26344;45.532;9.232;2023-02-26T16:26:39;2.13;;;1.33;;
40653;SDS011;26344;45.532;9.232;2023-02-26T16:29:16;2.80;;;1.00;;
40653;SDS011;26344;45.532;9.232;2023-02-26T16:31:44;2.05;;;1.10;;
40653;SDS011;26344;45.532;9.232;2023-02-26T16:36:57;3.45;;;1.10;;
40653;SDS011;26344;45.532;9.232;2023-02-26T16:39:25;2.05;;;1.25;;
40653;SDS011;26344;45.532;9.232;2023-02-26T16:44:43;3.85;;;1.52;;
40653;SDS011;26344;45.532;9.232;2023-02-26T16:47:10;2.13;;;1.20;;
40653;SDS011;26344;45.532;9.232;2023-02-26T16:49:36;2.58;;;1.15;;
40653;SDS011;26344;45.532;9.232;2023-02-26T16:52:04;3.85;;;1.15;;
40653;SDS011;26344;45.532;9.232;2023-02-26T16:54:34;2.10;;;1.30;;
40653;SDS011;26344;45.532;9.232;2023-02-26T16:57:03;3.35;;;1.13;;
40653;SDS011;26344;45.532;9.232;2023-02-26T17:02:03;2.33;;;1.45;;
40653;SDS011;26344;45.532;9.232;2023-02-26T17:04:31;3.17;;;1.40;;
40653;SDS011;26344;45.532;9.232;2023-02-26T17:06:59;3.10;;;1.50;;
40653;SDS011;26344;45.532;9.232;2023-02-26T17:12:02;7.40;;;2.10;;
40653;SDS011;26344;45.532;9.232;2023-02-26T17:14:28;3.28;;;1.83;;
40653;SDS011;26344;45.532;9.232;2023-02-26T17:16:56;3.05;;;1.40;;
40653;SDS011;26344;45.532;9.232;2023-02-26T17:19:22;2.53;;;1.60;;
40653;SDS011;26344;45.532;9.232;2023-02-26T17:21:49;3.53;;;1.80;;
40653;SDS011;26344;45.532;9.232;2023-02-26T17:24:16;4.65;;;2.22;;
40653;SDS011;26344;45.532;9.232;2023-02-26T17:26:43;4.22;;;2.10;;
40653;SDS011;26344;45.532;9.232;2023-02-26T17:29:14;3.90;;;1.95;;
40653;SDS011;26344;45.532;9.232;2023-02-26T17:31:41;4.45;;;1.73;;
40653;SDS011;26344;45.532;9.232;2023-02-26T17:34:08;3.35;;;1.73;;
40653;SDS011;26344;45.532;9.232;2023-02-26T17:36:35;2.75;;;1.88;;
40653;SDS011;26344;45.532;9.232;2023-02-26T17:39:01;3.38;;;1.80;;
40653;SDS011;26344;45.532;9.232;2023-02-26T17:41:27;4.60;;;1.77;;
40653;SDS011;26344;45.532;9.232;2023-02-26T17:43:54;5.38;;;1.60;;
40653;SDS011;26344;45.532;9.232;2023-02-26T17:46:20;4.10;;;1.80;;
40653;SDS011;26344;45.532;9.232;2023-02-26T17:48:46;2.95;;;1.70;;
40653;SDS011;26344;45.532;9.232;2023-02-26T17:51:14;4.18;;;2.47;;